Time;durP1;ratioP1;P1;durP2;ratioP2;P2;SDS_P1;SDS_P2;PMS_P1;PMS_P2;Temp;Humidity;BMP_temperature;BMP_pressure;BME280_temperature;BME280_humidity;BME280_pressure;Samples;Min_cycle;Max_cycle;Signal;HPM_P1;HPM_P2
2023/04/16 00:02:01;;;;;;;53.33;27.20;;;;;;;;;;7632151;23;20001;-74
2023/04/16 00:05:01;;;;;;;55.07;31.10;;;;;;;;;;7631996;23;20025;-73
2023/04/16 00:08:01;;;;;;;45.10;24.23;;;;;;;;;;7631538;23;20001;-73
2023/04/16 00:11:01;;;;;;;56.28;30.05;;;;;;;;;;7629757;23;19990;-74
2023/04/16 00:14:02;;;;;;;59.70;30.53;;;;;;;;;;7631337;23;20368;-74
2023/04/16 00:17:03;;;;;;;57.40;31.15;;;;;;;;;;7631957;23;20067;-74
2023/04/16 00:20:04;;;;;;;49.22;28.55;;;;;;;;;;7631058;23;19993;-74
2023/04/16 00:23:04;;;;;;;47.50;23.67;;;;;;;;;;7630323;22;20032;-74
2023/04/16 00:26:04;;;;;;;82.17;26.00;;;;;;;;;;7631813;23;20452;-74
2023/04/16 00:29:04;;;;;;;112.57;31.17;;;;;;;;;;7631783;23;20051;-74
2023/04/16 00:32:06;;;;;;;70.77;25.47;;;;;;;;;;7629966;23;20029;-74
2023/04/16 00:35:06;;;;;;;84.20;23.83;;;;;;;;;;7630918;23;20002;-74
2023/04/16 00:38:07;;;;;;;77.03;25.37;;;;;;;;;;7631328;23;20444;-75
2023/04/16 00:41:07;;;;;;;93.93;35.03;;;;;;;;;;7632056;23;19998;-74
2023/04/16 00:44:07;;;;;;;113.60;34.60;;;;;;;;;;7631531;23;20414;-75
2023/04/16 00:47:07;;;;;;;102.00;33.20;;;;;;;;;;7630976;23;20076;-74
2023/04/16 00:50:08;;;;;;;107.50;33.33;;;;;;;;;;7631598;23;20338;-74
2023/04/16 00:53:09;;;;;;;101.80;29.15;;;;;;;;;;7631378;23;20070;-74
2023/04/16 00:56:09;;;;;;;94.43;28.83;;;;;;;;;;7631111;23;20501;-74
2023/04/16 00:59:10;;;;;;;71.40;23.80;;;;;;;;;;7631628;23;20001;-74
2023/04/16 01:02:11;;;;;;;60.13;19.40;;;;;;;;;;7630985;23;20006;-82
2023/04/16 01:05:11;;;;;;;63.33;20.97;;;;;;;;;;7631006;23;20001;-81
2023/04/16 01:08:21;;;;;;;61.73;22.80;;;;;;;;;;7630452;23;20072;-81
2023/04/16 01:11:21;;;;;;;66.07;23.50;;;;;;;;;;7631528;23;20019;-80
2023/04/16 01:14:21;;;;;;;77.63;26.23;;;;;;;;;;7631504;23;20509;-74
2023/04/16 01:17:21;;;;;;;59.38;22.00;;;;;;;;;;7630849;23;20051;-75
2023/04/16 01:20:21;;;;;;;55.60;22.38;;;;;;;;;;7631095;23;20430;-74
2023/04/16 01:23:22;;;;;;;56.30;25.67;;;;;;;;;;7629424;23;20005;-75
2023/04/16 01:26:22;;;;;;;57.43;26.87;;;;;;;;;;7631152;23;20009;-74
2023/04/16 01:29:22;;;;;;;59.57;25.97;;;;;;;;;;7630988;23;20370;-74
2023/04/16 01:32:22;;;;;;;65.43;24.67;;;;;;;;;;7631206;23;19997;-74
2023/04/16 01:35:23;;;;;;;52.43;23.97;;;;;;;;;;7630417;23;20016;-74
2023/04/16 01:38:23;;;;;;;61.13;22.73;;;;;;;;;;7632004;23;20329;-75
2023/04/16 01:41:24;;;;;;;69.20;21.33;;;;;;;;;;7632363;23;19998;-75
2023/04/16 01:44:24;;;;;;;45.23;19.53;;;;;;;;;;7632725;23;19998;-75
2023/04/16 01:47:24;;;;;;;54.07;20.13;;;;;;;;;;7632769;23;20005;-75
2023/04/16 01:50:25;;;;;;;52.20;21.27;;;;;;;;;;7632661;23;20326;-75
2023/04/16 01:53:25;;;;;;;72.17;24.33;;;;;;;;;;7631537;23;20004;-74
2023/04/16 01:56:26;;;;;;;61.28;23.60;;;;;;;;;;7632025;23;20347;-76
2023/04/16 01:59:27;;;;;;;71.43;25.60;;;;;;;;;;7632365;23;19997;-75
2023/04/16 02:02:27;;;;;;;84.33;27.80;;;;;;;;;;7632403;23;20326;-75
2023/04/16 02:05:28;;;;;;;61.20;24.13;;;;;;;;;;7632361;23;20051;-74
2023/04/16 02:08:28;;;;;;;74.60;26.67;;;;;;;;;;7632003;23;20074;-75
2023/04/16 02:11:28;;;;;;;47.53;21.50;;;;;;;;;;7631268;23;20417;-74
2023/04/16 02:14:29;;;;;;;40.03;20.43;;;;;;;;;;7632634;23;20377;-84
2023/04/16 02:17:29;;;;;;;36.70;17.73;;;;;;;;;;7633483;23;19998;-85
2023/04/16 02:20:29;;;;;;;46.07;22.93;;;;;;;;;;7633425;23;20036;-83
2023/04/16 02:23:29;;;;;;;53.90;24.97;;;;;;;;;;7633333;23;19993;-82
2023/04/16 02:26:30;;;;;;;40.53;21.13;;;;;;;;;;7633646;23;20338;-82
2023/04/16 02:29:30;;;;;;;46.43;26.00;;;;;;;;;;7631473;23;20307;-82
2023/04/16 02:32:31;;;;;;;45.90;24.10;;;;;;;;;;7632517;23;20408;-81
2023/04/16 02:35:31;;;;;;;53.70;26.20;;;;;;;;;;7632364;23;20001;-81
2023/04/16 02:38:31;;;;;;;51.07;28.43;;;;;;;;;;7632896;23;20084;-83
2023/04/16 02:41:32;;;;;;;62.87;30.80;;;;;;;;;;7632330;23;20006;-82
2023/04/16 02:44:32;;;;;;;63.07;33.83;;;;;;;;;;7632370;23;19997;-81
2023/04/16 02:47:32;;;;;;;53.70;30.70;;;;;;;;;;7632139;23;20040;-81
2023/04/16 02:50:32;;;;;;;91.55;31.77;;;;;;;;;;7632986;23;20099;-81
2023/04/16 02:53:33;;;;;;;85.63;29.17;;;;;;;;;;7633280;23;20051;-81
2023/04/16 02:56:33;;;;;;;70.70;28.60;;;;;;;;;;7632201;23;20040;-82
2023/04/16 02:59:33;;;;;;;96.60;21.07;;;;;;;;;;7633165;23;20005;-83
2023/04/16 03:02:33;;;;;;;133.60;32.80;;;;;;;;;;7632877;23;20016;-83
2023/04/16 03:05:33;;;;;;;174.73;35.90;;;;;;;;;;7633090;23;19993;-83
2023/04/16 03:08:34;;;;;;;102.07;28.57;;;;;;;;;;7632345;23;20055;-82
2023/04/16 03:11:34;;;;;;;101.10;29.07;;;;;;;;;;7633313;23;20077;-83
2023/04/16 03:14:35;;;;;;;108.40;31.17;;;;;;;;;;7630911;23;20430;-82
2023/04/16 03:17:36;;;;;;;160.23;33.90;;;;;;;;;;7633123;23;20080;-81
2023/04/16 03:20:36;;;;;;;178.75;38.00;;;;;;;;;;7632597;23;20350;-82
2023/04/16 03:23:37;;;;;;;144.43;35.57;;;;;;;;;;7632582;23;20004;-83
2023/04/16 03:26:37;;;;;;;124.77;33.00;;;;;;;;;;7631907;23;20072;-82
2023/04/16 03:29:37;;;;;;;111.03;33.00;;;;;;;;;;7632991;23;19998;-83
2023/04/16 03:32:38;;;;;;;137.30;34.07;;;;;;;;;;7632533;23;20060;-82
2023/04/16 03:35:38;;;;;;;89.07;27.50;;;;;;;;;;7632432;23;20475;-83
2023/04/16 03:38:38;;;;;;;83.32;23.95;;;;;;;;;;7631641;23;19993;-83
2023/04/16 03:41:38;;;;;;;77.10;24.10;;;;;;;;;;7632316;23;20485;-82
2023/04/16 03:44:38;;;;;;;118.67;31.03;;;;;;;;;;7631978;23;19997;-82
2023/04/16 03:47:39;;;;;;;114.22;29.80;;;;;;;;;;7631449;23;20001;-83
2023/04/16 03:50:39;;;;;;;94.57;31.23;;;;;;;;;;7632504;23;20080;-83
2023/04/16 03:53:39;;;;;;;107.90;31.30;;;;;;;;;;7631717;23;19997;-81
2023/04/16 03:56:40;;;;;;;103.90;30.17;;;;;;;;;;7631133;23;20021;-82
2023/04/16 03:59:40;;;;;;;128.23;34.95;;;;;;;;;;7629031;23;19997;-83
2023/04/16 04:02:41;;;;;;;106.57;29.70;;;;;;;;;;7631649;23;19989;-82
2023/04/16 04:05:41;;;;;;;83.67;28.23;;;;;;;;;;7632012;23;20318;-82
2023/04/16 04:08:41;;;;;;;101.37;30.40;;;;;;;;;;7632307;23;20084;-82
2023/04/16 04:11:42;;;;;;;85.43;28.97;;;;;;;;;;7632051;23;19994;-83
2023/04/16 04:14:42;;;;;;;96.33;29.33;;;;;;;;;;7632018;23;20088;-82
2023/04/16 04:17:42;;;;;;;93.43;30.50;;;;;;;;;;7632545;23;19997;-82
2023/04/16 04:20:43;;;;;;;108.10;25.50;;;;;;;;;;7631874;23;20433;-82
2023/04/16 04:23:43;;;;;;;114.80;30.40;;;;;;;;;;7631853;23;20002;-82
2023/04/16 04:26:44;;;;;;;106.30;25.90;;;;;;;;;;7631307;23;20456;-82
2023/04/16 04:29:44;;;;;;;94.50;26.73;;;;;;;;;;7630497;23;20001;-81
2023/04/16 04:32:44;;;;;;;120.00;29.17;;;;;;;;;;7631565;23;19994;-82
2023/04/16 04:35:44;;;;;;;112.23;27.30;;;;;;;;;;7631993;23;20205;-82
2023/04/16 04:38:45;;;;;;;128.57;29.80;;;;;;;;;;7631560;23;20100;-83
2023/04/16 04:41:45;;;;;;;98.87;29.13;;;;;;;;;;7632225;23;20002;-82
2023/04/16 04:44:45;;;;;;;109.87;26.67;;;;;;;;;;7632548;23;20403;-81
2023/04/16 04:47:45;;;;;;;104.77;29.10;;;;;;;;;;7631301;23;20005;-82
2023/04/16 04:50:46;;;;;;;119.43;27.83;;;;;;;;;;7631878;23;20438;-82
2023/04/16 04:53:46;;;;;;;117.73;28.80;;;;;;;;;;7632214;23;20004;-81
2023/04/16 04:56:46;;;;;;;121.53;28.20;;;;;;;;;;7632443;23;20067;-82
2023/04/16 04:59:46;;;;;;;123.23;32.70;;;;;;;;;;7630408;23;20422;-81
2023/04/16 05:02:47;;;;;;;146.03;33.07;;;;;;;;;;7631625;23;20027;-81
2023/04/16 05:05:47;;;;;;;121.78;30.67;;;;;;;;;;7633294;23;20025;-81
2023/04/16 05:08:47;;;;;;;102.70;31.97;;;;;;;;;;7634339;23;20071;-82
2023/04/16 05:11:47;;;;;;;149.57;33.63;;;;;;;;;;7634637;23;20594;-81
2023/04/16 05:14:47;;;;;;;105.60;30.40;;;;;;;;;;7631961;23;19997;-82
2023/04/16 05:17:48;;;;;;;135.00;31.77;;;;;;;;;;7632104;23;20025;-82
2023/04/16 05:20:50;;;;;;;115.78;32.45;;;;;;;;;;7631327;23;20004;-82
2023/04/16 05:23:50;;;;;;;;;;;;;;;;;;7639848;23;19994;-82
2023/04/16 05:26:50;;;;;;;100.53;28.40;;;;;;;;;;7637523;23;19943;-81
2023/04/16 05:29:50;;;;;;;160.17;31.47;;;;;;;;;;7636727;23;20003;-83
2023/04/16 05:32:50;;;;;;;128.77;32.37;;;;;;;;;;7632148;23;20001;-82
2023/04/16 05:35:50;;;;;;;136.07;35.10;;;;;;;;;;7630891;23;19993;-83
2023/04/16 05:38:51;;;;;;;120.05;26.02;;;;;;;;;;7630561;23;20317;-82
2023/04/16 05:41:51;;;;;;;170.17;35.23;;;;;;;;;;7631625;23;19993;-82
2023/04/16 05:44:52;;;;;;;154.73;36.30;;;;;;;;;;7630902;23;19994;-81
2023/04/16 05:47:52;;;;;;;101.30;33.90;;;;;;;;;;7630668;23;20001;-82
2023/04/16 05:50:54;;;;;;;180.20;36.37;;;;;;;;;;7631156;23;20444;-83
2023/04/16 05:53:54;;;;;;;198.45;37.67;;;;;;;;;;7630132;23;20000;-76
2023/04/16 05:56:55;;;;;;;151.33;36.07;;;;;;;;;;7628865;23;20381;-76
2023/04/16 05:59:55;;;;;;;174.27;34.73;;;;;;;;;;7629869;23;20023;-76
2023/04/16 06:02:55;;;;;;;198.50;39.17;;;;;;;;;;7629151;23;20400;-76
2023/04/16 06:05:56;;;;;;;157.23;34.13;;;;;;;;;;7629085;23;20010;-76
2023/04/16 06:08:56;;;;;;;136.00;34.13;;;;;;;;;;7630789;23;19993;-76
2023/04/16 06:11:56;;;;;;;171.00;37.97;;;;;;;;;;7630306;23;20004;-76
2023/04/16 06:14:57;;;;;;;112.03;33.37;;;;;;;;;;7630991;23;19993;-75
2023/04/16 06:17:57;;;;;;;102.63;37.87;;;;;;;;;;7630928;23;20299;-76
2023/04/16 06:21:00;;;;;;;138.83;40.10;;;;;;;;;;7630644;23;20001;-76
2023/04/16 06:24:00;;;;;;;104.47;36.95;;;;;;;;;;7631956;23;20020;-76
2023/04/16 06:27:02;;;;;;;96.57;35.23;;;;;;;;;;7630396;23;19998;-76
2023/04/16 06:30:02;;;;;;;90.35;33.60;;;;;;;;;;7631738;23;19998;-76
2023/04/16 06:33:03;;;;;;;116.67;37.73;;;;;;;;;;7631958;23;20040;-76
2023/04/16 06:36:03;;;;;;;89.80;37.73;;;;;;;;;;7632744;23;20015;-76
2023/04/16 06:39:03;;;;;;;88.70;37.57;;;;;;;;;;7631007;23;20024;-76
2023/04/16 06:42:05;;;;;;;84.47;37.63;;;;;;;;;;7631395;23;20453;-76
2023/04/16 06:45:05;;;;;;;88.30;36.75;;;;;;;;;;7631416;23;20081;-76
2023/04/16 06:48:05;;;;;;;85.83;36.10;;;;;;;;;;7632175;23;20038;-76
2023/04/16 06:51:06;;;;;;;78.13;35.33;;;;;;;;;;7631864;23;19998;-76
2023/04/16 06:54:06;;;;;;;77.33;38.40;;;;;;;;;;7634444;23;20374;-85
2023/04/16 06:57:06;;;;;;;77.27;32.40;;;;;;;;;;7638602;23;20013;-86
2023/04/16 07:00:07;;;;;;;78.10;35.23;;;;;;;;;;7635219;23;19994;-86
2023/04/16 07:03:07;;;;;;;70.47;32.00;;;;;;;;;;7641479;23;20096;-87
2023/04/16 07:06:07;;;;;;;70.57;36.43;;;;;;;;;;7644561;23;19998;-88
2023/04/16 07:09:07;;;;;;;64.70;34.63;;;;;;;;;;7643942;23;20047;-89
2023/04/16 07:12:08;;;;;;;63.07;29.97;;;;;;;;;;7643904;23;20001;-88
2023/04/16 07:15:08;;;;;;;54.37;32.13;;;;;;;;;;7636322;23;20359;-88
2023/04/16 07:18:08;;;;;;;58.30;27.60;;;;;;;;;;7631348;23;19998;-87
2023/04/16 07:21:09;;;;;;;70.53;35.03;;;;;;;;;;7633424;23;20036;-86
2023/04/16 07:24:10;;;;;;;56.30;33.03;;;;;;;;;;7637746;23;20492;-86
2023/04/16 07:27:10;;;;;;;65.10;36.28;;;;;;;;;;7636377;23;20029;-85
2023/04/16 07:30:12;;;;;;;64.80;35.77;;;;;;;;;;7638569;22;20389;-85
2023/04/16 07:33:13;;;;;;;55.47;31.30;;;;;;;;;;7635917;23;20414;-81
2023/04/16 07:36:14;;;;;;;68.75;34.63;;;;;;;;;;7633782;23;20068;-84
2023/04/16 07:39:14;;;;;;;54.17;28.77;;;;;;;;;;7631886;23;20013;-84
2023/04/16 07:42:14;;;;;;;57.43;31.53;;;;;;;;;;7635634;23;20012;-84
2023/04/16 07:45:15;;;;;;;72.30;37.27;;;;;;;;;;7635078;23;20008;-83
2023/04/16 07:48:15;;;;;;;63.07;35.47;;;;;;;;;;7636168;23;20044;-82
2023/04/16 07:51:15;;;;;;;64.77;35.73;;;;;;;;;;7631907;23;20317;-83
2023/04/16 07:54:15;;;;;;;56.20;30.43;;;;;;;;;;7631509;23;20761;-82
2023/04/16 07:57:17;;;;;;;62.13;33.20;;;;;;;;;;7632969;23;20013;-82
2023/04/16 08:00:17;;;;;;;59.58;31.13;;;;;;;;;;7631066;23;20005;-83
2023/04/16 08:03:17;;;;;;;57.35;29.98;;;;;;;;;;7631357;23;19997;-82
2023/04/16 08:06:17;;;;;;;55.23;31.23;;;;;;;;;;7631651;23;19997;-82
2023/04/16 08:09:21;;;;;;;52.88;30.42;;;;;;;;;;7631517;23;19994;-83
2023/04/16 08:12:22;;;;;;;51.10;30.17;;;;;;;;;;7632026;23;20000;-75
2023/04/16 08:15:22;;;;;;;50.87;31.47;;;;;;;;;;7631241;23;20323;-75
2023/04/16 08:18:22;;;;;;;45.87;27.80;;;;;;;;;;7631722;23;20069;-74
2023/04/16 08:21:22;;;;;;;49.67;31.27;;;;;;;;;;7631098;23;20051;-74
2023/04/16 08:24:22;;;;;;;60.27;32.93;;;;;;;;;;7631283;23;19997;-74
2023/04/16 08:27:23;;;;;;;46.42;27.13;;;;;;;;;;7631133;23;20081;-75
2023/04/16 08:30:23;;;;;;;48.10;27.30;;;;;;;;;;7629726;23;20005;-74
2023/04/16 08:33:23;;;;;;;45.43;26.70;;;;;;;;;;7631046;23;20001;-75
2023/04/16 08:36:24;;;;;;;42.37;25.90;;;;;;;;;;7630422;23;20004;-74
2023/04/16 08:39:24;;;;;;;45.20;28.47;;;;;;;;;;7631585;23;20001;-74
2023/04/16 08:42:30;;;;;;;40.63;23.97;;;;;;;;;;7629401;23;20424;-75
2023/04/16 08:45:32;;;;;;;39.05;24.10;;;;;;;;;;7628964;23;20101;-75
2023/04/16 08:48:32;;;;;;;34.70;22.70;;;;;;;;;;7630724;23;20013;-75
2023/04/16 08:51:34;;;;;;;26.27;18.17;;;;;;;;;;7631511;23;20421;-75
2023/04/16 08:54:52;;;;;;;16.80;10.40;;;;;;;;;;7627555;23;20022;-75
2023/04/16 08:57:53;;;;;;;17.40;11.45;;;;;;;;;;7630757;23;20064;-75
2023/04/16 09:00:56;;;;;;;15.80;10.50;;;;;;;;;;7630423;23;20000;-75
2023/04/16 09:03:56;;;;;;;14.50;10.43;;;;;;;;;;7630742;23;20005;-73
2023/04/16 09:06:58;;;;;;;15.97;10.50;;;;;;;;;;7629932;23;20341;-75
2023/04/16 09:09:59;;;;;;;13.98;9.30;;;;;;;;;;7631528;23;20007;-74
2023/04/16 09:13:00;;;;;;;16.23;10.32;;;;;;;;;;7632129;23;19998;-84
2023/04/16 09:16:00;;;;;;;14.40;8.83;;;;;;;;;;7633936;23;20025;-83
2023/04/16 09:19:02;;;;;;;15.30;10.30;;;;;;;;;;7640612;23;19997;-82
2023/04/16 09:22:02;;;;;;;16.23;9.75;;;;;;;;;;7652679;23;20001;-75
2023/04/16 09:25:03;;;;;;;15.80;9.63;;;;;;;;;;7629378;23;19998;-75
2023/04/16 09:28:03;;;;;;;16.33;9.67;;;;;;;;;;7629905;23;20536;-75
2023/04/16 09:31:11;;;;;;;14.27;9.60;;;;;;;;;;7630176;23;20043;-74
2023/04/16 09:34:11;;;;;;;15.20;9.82;;;;;;;;;;7630175;23;20024;-75
2023/04/16 09:37:15;;;;;;;13.47;8.70;;;;;;;;;;7630944;23;20357;-75
2023/04/16 09:40:22;;;;;;;16.30;9.10;;;;;;;;;;7630903;23;20033;-74
2023/04/16 09:43:25;;;;;;;15.85;10.57;;;;;;;;;;7631131;23;19994;-74
2023/04/16 09:46:36;;;;;;;14.93;9.73;;;;;;;;;;7629302;23;20011;-74
2023/04/16 09:49:41;;;;;;;17.58;12.07;;;;;;;;;;7627440;23;20001;-75
2023/04/16 09:52:42;;;;;;;18.50;10.32;;;;;;;;;;7631026;23;20009;-74
2023/04/16 09:55:42;;;;;;;16.33;10.23;;;;;;;;;;7629649;23;20062;-75
2023/04/16 09:58:42;;;;;;;14.27;10.10;;;;;;;;;;7628234;23;20426;-74
2023/04/16 10:01:45;;;;;;;14.30;8.80;;;;;;;;;;7631239;23;19998;-74
2023/04/16 10:04:50;;;;;;;15.80;8.65;;;;;;;;;;7629171;23;20046;-74
2023/04/16 10:07:50;;;;;;;11.05;6.50;;;;;;;;;;7631883;23;20025;-74
2023/04/16 10:10:51;;;;;;;11.73;7.87;;;;;;;;;;7630434;23;20112;-74
2023/04/16 10:13:51;;;;;;;9.57;6.10;;;;;;;;;;7632239;23;19998;-74
2023/04/16 10:16:52;;;;;;;8.37;6.10;;;;;;;;;;7632006;23;20004;-74
2023/04/16 10:19:53;;;;;;;8.73;6.07;;;;;;;;;;7632454;23;20021;-74
2023/04/16 10:22:53;;;;;;;10.30;6.35;;;;;;;;;;7631677;23;20002;-84
2023/04/16 10:25:53;;;;;;;10.97;6.07;;;;;;;;;;7635009;23;20016;-84
2023/04/16 10:28:54;;;;;;;10.60;7.00;;;;;;;;;;7634519;23;20512;-85
2023/04/16 10:31:55;;;;;;;10.03;6.70;;;;;;;;;;7634468;23;20456;-86
2023/04/16 10:34:55;;;;;;;10.35;6.85;;;;;;;;;;7635103;23;19993;-86
2023/04/16 10:37:55;;;;;;;8.73;6.80;;;;;;;;;;7634572;23;20006;-87
2023/04/16 10:41:01;;;;;;;11.53;6.70;;;;;;;;;;7635649;23;20373;-85
2023/04/16 10:44:08;;;;;;;12.43;7.55;;;;;;;;;;7634858;22;20001;-84
2023/04/16 10:47:10;;;;;;;11.95;7.22;;;;;;;;;;7635790;23;20025;-82
2023/04/16 10:50:16;;;;;;;10.88;6.90;;;;;;;;;;7633725;23;20061;-84
2023/04/16 10:53:18;;;;;;;10.50;6.78;;;;;;;;;;7635800;23;20699;-83
2023/04/16 10:56:22;;;;;;;9.32;6.70;;;;;;;;;;7636218;23;20014;-86
2023/04/16 10:59:22;;;;;;;10.98;7.35;;;;;;;;;;7635353;23;20421;-83
2023/04/16 11:02:27;;;;;;;10.70;6.50;;;;;;;;;;7636609;23;19993;-84
2023/04/16 11:05:43;;;;;;;8.20;6.15;;;;;;;;;;7636368;23;20221;-83
2023/04/16 11:08:47;;;;;;;9.60;6.80;;;;;;;;;;7638378;23;20018;-84
2023/04/16 11:11:47;;;;;;;10.40;6.60;;;;;;;;;;7638528;23;20033;-82
2023/04/16 11:14:51;;;;;;;10.93;7.57;;;;;;;;;;7632864;23;20081;-82
2023/04/16 11:17:51;;;;;;;10.98;7.47;;;;;;;;;;7633379;23;20399;-82
2023/04/16 11:20:52;;;;;;;10.10;6.90;;;;;;;;;;7635042;23;20008;-82
2023/04/16 11:23:52;;;;;;;9.80;6.63;;;;;;;;;;7633471;23;20560;-82
2023/04/16 11:26:52;;;;;;;9.13;6.73;;;;;;;;;;7632506;23;20013;-85
2023/04/16 11:29:56;;;;;;;9.03;5.97;;;;;;;;;;7635469;22;20402;-84
2023/04/16 11:32:57;;;;;;;9.45;5.50;;;;;;;;;;7632443;23;20452;-75
2023/04/16 11:36:00;;;;;;;9.00;5.60;;;;;;;;;;7631815;23;20026;-75
2023/04/16 11:39:02;;;;;;;11.50;7.53;;;;;;;;;;7631961;23;19998;-75
2023/04/16 11:42:02;;;;;;;11.55;6.78;;;;;;;;;;7631544;22;20081;-80
2023/04/16 11:45:03;;;;;;;10.47;6.80;;;;;;;;;;7630292;23;20001;-75
2023/04/16 11:48:03;;;;;;;10.50;6.50;;;;;;;;;;7632099;23;20001;-74
2023/04/16 11:51:04;;;;;;;8.73;5.20;;;;;;;;;;7629450;23;20020;-75
2023/04/16 11:54:04;;;;;;;8.83;5.73;;;;;;;;;;7631737;23;20062;-75
2023/04/16 11:57:05;;;;;;;8.27;5.80;;;;;;;;;;7632178;23;20127;-75
2023/04/16 12:00:12;;;;;;;9.13;5.70;;;;;;;;;;7631452;23;19994;-75
2023/04/16 12:03:12;;;;;;;8.50;6.03;;;;;;;;;;7631638;23;20424;-75
2023/04/16 12:06:13;;;;;;;8.03;5.67;;;;;;;;;;7630502;23;20036;-75
2023/04/16 12:09:23;;;;;;;8.50;5.90;;;;;;;;;;7632161;23;19994;-75
2023/04/16 12:12:25;;;;;;;8.23;4.90;;;;;;;;;;7631464;23;19990;-75
2023/04/16 12:15:41;;;;;;;7.78;5.05;;;;;;;;;;7632343;23;20039;-75
2023/04/16 12:18:57;;;;;;;11.50;6.38;;;;;;;;;;7630971;23;20001;-75
2023/04/16 12:21:59;;;;;;;8.75;5.68;;;;;;;;;;7631379;23;20009;-76
2023/04/16 12:25:04;;;;;;;9.38;6.10;;;;;;;;;;7630141;23;20004;-75
2023/04/16 12:28:05;;;;;;;9.38;5.65;;;;;;;;;;7632140;23;20005;-75
2023/04/16 12:31:05;;;;;;;7.80;5.10;;;;;;;;;;7631968;23;20422;-75
2023/04/16 12:34:06;;;;;;;9.27;6.07;;;;;;;;;;7630415;23;19990;-75
2023/04/16 12:37:08;;;;;;;7.83;5.57;;;;;;;;;;7630982;23;20013;-75
2023/04/16 12:40:09;;;;;;;9.23;6.07;;;;;;;;;;7630803;23;19997;-75
2023/04/16 12:43:09;;;;;;;9.10;5.93;;;;;;;;;;7630960;23;19993;-84
2023/04/16 12:46:09;;;;;;;6.43;5.20;;;;;;;;;;7630682;23;20059;-84
2023/04/16 12:49:10;;;;;;;7.97;5.20;;;;;;;;;;7630320;23;20369;-85
2023/04/16 12:52:10;;;;;;;9.20;5.87;;;;;;;;;;7630831;23;20005;-83
2023/04/16 12:55:10;;;;;;;9.53;5.50;;;;;;;;;;7630281;23;20033;-84
2023/04/16 12:58:10;;;;;;;8.10;5.93;;;;;;;;;;7630854;23;20332;-85
2023/04/16 13:01:11;;;;;;;11.88;6.20;;;;;;;;;;7631572;23;20498;-82
2023/04/16 13:04:11;;;;;;;8.13;5.82;;;;;;;;;;7631171;23;20002;-84
2023/04/16 13:07:11;;;;;;;7.43;4.97;;;;;;;;;;7631573;23;20009;-84
2023/04/16 13:10:12;;;;;;;9.57;5.93;;;;;;;;;;7633521;23;20072;-85
2023/04/16 13:13:12;;;;;;;6.85;5.18;;;;;;;;;;7634009;23;20581;-86
2023/04/16 13:16:13;;;;;;;9.60;5.37;;;;;;;;;;7633196;23;19998;-84
2023/04/16 13:19:14;;;;;;;6.53;5.00;;;;;;;;;;7635012;23;20299;-84
2023/04/16 13:22:14;;;;;;;6.55;4.43;;;;;;;;;;7632634;23;19993;-85
2023/04/16 13:25:15;;;;;;;8.00;4.57;;;;;;;;;;7631524;23;20002;-84
2023/04/16 13:28:15;;;;;;;9.53;5.90;;;;;;;;;;7632080;23;20051;-84
2023/04/16 13:31:19;;;;;;;8.00;5.20;;;;;;;;;;7631145;23;20073;-85
2023/04/16 13:34:19;;;;;;;7.47;5.60;;;;;;;;;;7632170;23;19993;-83
2023/04/16 13:37:19;;;;;;;7.33;5.47;;;;;;;;;;7631429;23;20001;-84
2023/04/16 13:40:19;;;;;;;7.23;5.17;;;;;;;;;;7634922;23;20409;-83
2023/04/16 13:43:21;;;;;;;7.88;5.88;;;;;;;;;;7634174;23;20023;-84
2023/04/16 13:46:21;;;;;;;8.80;5.57;;;;;;;;;;7632520;23;19998;-83
2023/04/16 13:49:22;;;;;;;8.23;6.23;;;;;;;;;;7632494;23;20417;-84
2023/04/16 13:52:22;;;;;;;10.38;6.22;;;;;;;;;;7633335;23;20401;-76
2023/04/16 13:55:22;;;;;;;6.33;4.30;;;;;;;;;;7630822;23;20124;-76
2023/04/16 13:58:23;;;;;;;7.43;4.57;;;;;;;;;;7631402;23;19997;-75
2023/04/16 14:01:23;;;;;;;7.47;4.68;;;;;;;;;;7629308;23;20039;-76
2023/04/16 14:04:23;;;;;;;7.73;5.13;;;;;;;;;;7636557;23;20019;-83
2023/04/16 14:07:26;;;;;;;6.90;4.27;;;;;;;;;;7645171;23;20001;-81
2023/04/16 14:10:26;;;;;;;7.28;4.60;;;;;;;;;;7640864;23;19994;-82
2023/04/16 14:13:26;;;;;;;6.63;4.43;;;;;;;;;;7639917;23;20067;-84
2023/04/16 14:16:27;;;;;;;4.33;3.50;;;;;;;;;;7633155;23;20001;-83
2023/04/16 14:19:27;;;;;;;5.97;3.97;;;;;;;;;;7633482;23;19993;-84
2023/04/16 14:22:27;;;;;;;7.07;4.67;;;;;;;;;;7631862;23;20005;-84
2023/04/16 14:25:27;;;;;;;7.47;4.40;;;;;;;;;;7632491;23;19998;-84
2023/04/16 14:28:27;;;;;;;5.60;4.03;;;;;;;;;;7637897;23;20001;-84
2023/04/16 14:31:28;;;;;;;5.53;3.60;;;;;;;;;;7644848;23;20109;-83
2023/04/16 14:34:30;;;;;;;6.43;4.00;;;;;;;;;;7636332;23;19997;-83
2023/04/16 14:37:30;;;;;;;6.00;4.13;;;;;;;;;;7633443;23;20000;-81
2023/04/16 14:40:31;;;;;;;12.30;6.63;;;;;;;;;;7632039;23;19997;-81
2023/04/16 14:43:31;;;;;;;9.00;4.67;;;;;;;;;;7631553;23;20330;-82
2023/04/16 14:46:32;;;;;;;13.50;7.27;;;;;;;;;;7635155;23;20010;-82
2023/04/16 14:49:32;;;;;;;12.90;5.28;;;;;;;;;;7632821;23;19994;-83
2023/04/16 14:52:33;;;;;;;8.73;6.17;;;;;;;;;;7629905;23;20021;-83
2023/04/16 14:55:33;;;;;;;7.83;5.97;;;;;;;;;;7632129;23;20604;-82
2023/04/16 14:58:34;;;;;;;15.80;8.37;;;;;;;;;;7632957;23;20001;-83
2023/04/16 15:01:38;;;;;;;6.63;4.57;;;;;;;;;;7632652;23;20051;-83
2023/04/16 15:04:38;;;;;;;9.25;4.60;;;;;;;;;;7631802;23;20005;-75
2023/04/16 15:07:38;;;;;;;7.03;5.10;;;;;;;;;;7630670;23;20055;-75
2023/04/16 15:10:41;;;;;;;6.90;4.30;;;;;;;;;;7630595;23;20035;-75
2023/04/16 15:13:41;;;;;;;9.48;6.32;;;;;;;;;;7630754;23;20072;-82
2023/04/16 15:16:41;;;;;;;14.13;7.87;;;;;;;;;;7633865;23;19999;-81
2023/04/16 15:19:42;;;;;;;12.40;8.20;;;;;;;;;;7633868;23;20426;-82
2023/04/16 15:22:43;;;;;;;12.63;7.47;;;;;;;;;;7632847;23;19993;-82
2023/04/16 15:25:44;;;;;;;;;;;;;;;;;;7636454;23;20002;-85
2023/04/16 15:28:45;;;;;;;13.50;7.85;;;;;;;;;;7633447;23;20020;-82
2023/04/16 15:31:46;;;;;;;13.83;8.43;;;;;;;;;;7633966;23;20329;-83
2023/04/16 15:34:46;;;;;;;10.95;7.03;;;;;;;;;;7631822;23;19994;-82
2023/04/16 15:37:48;;;;;;;11.97;7.90;;;;;;;;;;7632879;23;20025;-83
2023/04/16 15:40:48;;;;;;;;;;;;;;;;;;7636758;23;20070;-83
2023/04/16 15:43:48;;;;;;;10.40;6.68;;;;;;;;;;7633385;23;20315;-82
2023/04/16 15:46:49;;;;;;;11.60;6.57;;;;;;;;;;7636250;23;20033;-84
2023/04/16 15:49:49;;;;;;;10.20;6.50;;;;;;;;;;7634179;23;19997;-82
2023/04/16 15:52:49;;;;;;;12.50;8.00;;;;;;;;;;7632996;23;19997;-81
2023/04/16 15:55:52;;;;;;;16.23;8.70;;;;;;;;;;7632497;23;20009;-81
2023/04/16 15:58:52;;;;;;;12.60;7.45;;;;;;;;;;7633046;23;20005;-81
2023/04/16 16:01:52;;;;;;;10.57;6.73;;;;;;;;;;7633943;23;20418;-82
2023/04/16 16:04:53;;;;;;;12.50;7.13;;;;;;;;;;7633569;23;19998;-82
2023/04/16 16:07:53;;;;;;;10.23;6.60;;;;;;;;;;7632407;23;20005;-81
2023/04/16 16:10:53;;;;;;;10.67;7.17;;;;;;;;;;7631993;23;20021;-82
2023/04/16 16:13:54;;;;;;;9.00;6.33;;;;;;;;;;7631813;23;20315;-82
2023/04/16 16:16:54;;;;;;;14.03;7.57;;;;;;;;;;7632311;23;20327;-83
2023/04/16 16:19:56;;;;;;;14.23;7.87;;;;;;;;;;7632174;23;20418;-82
2023/04/16 16:22:56;;;;;;;12.32;6.97;;;;;;;;;;7632296;23;20004;-76
2023/04/16 16:25:57;;;;;;;11.87;6.77;;;;;;;;;;7631423;23;20001;-76
2023/04/16 16:28:57;;;;;;;12.13;7.53;;;;;;;;;;7631272;23;20081;-75
2023/04/16 16:31:57;;;;;;;9.85;6.05;;;;;;;;;;7630686;23;19998;-75
2023/04/16 16:34:57;;;;;;;11.23;7.17;;;;;;;;;;7630788;23;19989;-75
2023/04/16 16:37:58;;;;;;;10.00;6.78;;;;;;;;;;7631224;23;20024;-75
2023/04/16 16:40:58;;;;;;;11.07;7.10;;;;;;;;;;7631197;23;20051;-75
2023/04/16 16:43:58;;;;;;;12.63;7.72;;;;;;;;;;7627806;23;19998;-75
2023/04/16 16:46:58;;;;;;;10.83;7.53;;;;;;;;;;7629407;23;20043;-76
2023/04/16 16:49:59;;;;;;;11.07;7.27;;;;;;;;;;7630505;23;20001;-76
2023/04/16 16:52:59;;;;;;;12.13;7.50;;;;;;;;;;7630133;23;20005;-75
2023/04/16 16:55:59;;;;;;;13.07;7.43;;;;;;;;;;7631334;23;20017;-75
2023/04/16 16:59:00;;;;;;;15.80;8.33;;;;;;;;;;7631711;23;20002;-75
2023/04/16 17:02:00;;;;;;;15.07;8.50;;;;;;;;;;7632181;23;20005;-75
2023/04/16 17:05:00;;;;;;;13.27;8.13;;;;;;;;;;7630676;23;19998;-75
2023/04/16 17:08:01;;;;;;;14.20;9.80;;;;;;;;;;7631808;23;20012;-74
2023/04/16 17:11:01;;;;;;;14.60;10.17;;;;;;;;;;7629422;23;20017;-75
2023/04/16 17:14:02;;;;;;;15.73;10.17;;;;;;;;;;7631378;23;19997;-74
2023/04/16 17:17:02;;;;;;;14.10;9.60;;;;;;;;;;7631113;23;20027;-74
2023/04/16 17:20:09;;;;;;;17.60;10.67;;;;;;;;;;7630126;23;19998;-75
2023/04/16 17:23:09;;;;;;;13.55;9.63;;;;;;;;;;7629441;23;20445;-74
2023/04/16 17:26:10;;;;;;;13.73;9.67;;;;;;;;;;7627201;23;20006;-74
2023/04/16 17:29:10;;;;;;;19.02;11.23;;;;;;;;;;7629170;23;20010;-74
2023/04/16 17:32:10;;;;;;;15.50;10.37;;;;;;;;;;7628683;23;20334;-75
2023/04/16 17:35:12;;;;;;;16.53;10.77;;;;;;;;;;7631351;23;20056;-75
2023/04/16 17:38:12;;;;;;;15.40;10.27;;;;;;;;;;7631150;23;20005;-75
2023/04/16 17:41:12;;;;;;;14.90;10.27;;;;;;;;;;7630803;23;19994;-75